Terminal Aerodrome Forecast
Issued by NWS Mt. Holly, NJ

Home | Current Version | Previous Version | Text Only | Print | Product List | Glossary On
Versions: 1 2 3 4 5 6 7 8 9 10 11 12 13 14
004
FTUS41 KPHI 082326
TAFRDG
TAF
KRDG 082326Z 0900/0924 09005KT P6SM OVC035
     FM090200 09005KT P6SM OVC025
     FM090400 08008KT 2SM -SN OVC010
     FM091200 05008KT 5SM -SN OVC015
     FM092100 02005KT 3/4SM -SN OVC005=

USA.gov is the U.S. government's official web portal to all federal, state and local government web resources and services.